sensor_id;sensor_type;location;lat;lon;timestamp;P1;durP1;ratioP1;P2;durP2;ratioP2
10471;SDS011;5283;48.876;8.962;2023-06-26T00:01:28;8.93;;;8.03;;
10471;SDS011;5283;48.876;8.962;2023-06-26T00:03:55;10.23;;;7.57;;
10471;SDS011;5283;48.876;8.962;2023-06-26T00:06:23;8.37;;;7.57;;
10471;SDS011;5283;48.876;8.962;2023-06-26T00:08:52;8.43;;;7.63;;
10471;SDS011;5283;48.876;8.962;2023-06-26T00:11:20;8.10;;;7.30;;
10471;SDS011;5283;48.876;8.962;2023-06-26T00:13:47;8.57;;;7.77;;
10471;SDS011;5283;48.876;8.962;2023-06-26T00:16:14;8.67;;;7.77;;
10471;SDS011;5283;48.876;8.962;2023-06-26T00:18:41;8.10;;;7.30;;
10471;SDS011;5283;48.876;8.962;2023-06-26T00:21:08;7.97;;;7.17;;
10471;SDS011;5283;48.876;8.962;2023-06-26T00:23:34;8.73;;;7.83;;
10471;SDS011;5283;48.876;8.962;2023-06-26T00:26:04;7.93;;;7.23;;
10471;SDS011;5283;48.876;8.962;2023-06-26T00:28:31;7.67;;;6.97;;
10471;SDS011;5283;48.876;8.962;2023-06-26T00:30:58;8.97;;;8.07;;
10471;SDS011;5283;48.876;8.962;2023-06-26T00:33:24;8.20;;;7.40;;
10471;SDS011;5283;48.876;8.962;2023-06-26T00:35:51;8.33;;;7.63;;
10471;SDS011;5283;48.876;8.962;2023-06-26T00:38:18;8.47;;;7.60;;
10471;SDS011;5283;48.876;8.962;2023-06-26T00:40:45;8.53;;;7.73;;
10471;SDS011;5283;48.876;8.962;2023-06-26T00:43:11;7.90;;;7.20;;
10471;SDS011;5283;48.876;8.962;2023-06-26T00:45:38;7.87;;;7.10;;
10471;SDS011;5283;48.876;8.962;2023-06-26T00:48:07;8.50;;;7.60;;
10471;SDS011;5283;48.876;8.962;2023-06-26T00:50:38;8.30;;;7.50;;
10471;SDS011;5283;48.876;8.962;2023-06-26T00:53:04;10.23;;;7.57;;
10471;SDS011;5283;48.876;8.962;2023-06-26T00:55:31;8.40;;;7.60;;
10471;SDS011;5283;48.876;8.962;2023-06-26T00:57:58;8.63;;;7.83;;
10471;SDS011;5283;48.876;8.962;2023-06-26T01:00:25;8.57;;;7.77;;
10471;SDS011;5283;48.876;8.962;2023-06-26T01:02:52;8.10;;;7.30;;
10471;SDS011;5283;48.876;8.962;2023-06-26T01:05:19;8.97;;;7.53;;
10471;SDS011;5283;48.876;8.962;2023-06-26T01:07:50;8.67;;;7.77;;
10471;SDS011;5283;48.876;8.962;2023-06-26T01:10:17;8.23;;;7.43;;
10471;SDS011;5283;48.876;8.962;2023-06-26T01:12:45;8.93;;;8.03;;
10471;SDS011;5283;48.876;8.962;2023-06-26T01:15:12;9.07;;;7.97;;
10471;SDS011;5283;48.876;8.962;2023-06-26T01:17:38;8.40;;;7.60;;
10471;SDS011;5283;48.876;8.962;2023-06-26T01:20:07;8.70;;;7.50;;
10471;SDS011;5283;48.876;8.962;2023-06-26T01:22:48;8.93;;;8.03;;
10471;SDS011;5283;48.876;8.962;2023-06-26T01:28:22;8.63;;;7.83;;
10471;SDS011;5283;48.876;8.962;2023-06-26T01:30:50;9.70;;;7.90;;
10471;SDS011;5283;48.876;8.962;2023-06-26T01:33:18;8.87;;;7.97;;
10471;SDS011;5283;48.876;8.962;2023-06-26T01:35:44;9.17;;;8.20;;
10471;SDS011;5283;48.876;8.962;2023-06-26T01:38:13;9.40;;;7.70;;
10471;SDS011;5283;48.876;8.962;2023-06-26T01:40:41;9.13;;;8.03;;
10471;SDS011;5283;48.876;8.962;2023-06-26T01:43:15;8.90;;;8.00;;
10471;SDS011;5283;48.876;8.962;2023-06-26T01:45:46;8.73;;;7.93;;
10471;SDS011;5283;48.876;8.962;2023-06-26T01:48:16;8.60;;;7.80;;
10471;SDS011;5283;48.876;8.962;2023-06-26T01:50:47;10.07;;;7.93;;
10471;SDS011;5283;48.876;8.962;2023-06-26T01:53:19;8.80;;;7.87;;
10471;SDS011;5283;48.876;8.962;2023-06-26T01:55:51;8.60;;;7.73;;
10471;SDS011;5283;48.876;8.962;2023-06-26T01:58:22;8.33;;;7.53;;
10471;SDS011;5283;48.876;8.962;2023-06-26T02:00:50;8.33;;;7.53;;
10471;SDS011;5283;48.876;8.962;2023-06-26T02:03:17;8.67;;;7.77;;
10471;SDS011;5283;48.876;8.962;2023-06-26T02:05:44;9.10;;;8.20;;
10471;SDS011;5283;48.876;8.962;2023-06-26T02:08:14;9.83;;;7.83;;
10471;SDS011;5283;48.876;8.962;2023-06-26T02:10:42;8.83;;;8.03;;
10471;SDS011;5283;48.876;8.962;2023-06-26T02:13:08;9.97;;;8.13;;
10471;SDS011;5283;48.876;8.962;2023-06-26T02:15:35;8.73;;;7.37;;
10471;SDS011;5283;48.876;8.962;2023-06-26T02:18:02;9.77;;;8.83;;
10471;SDS011;5283;48.876;8.962;2023-06-26T02:20:28;9.17;;;8.27;;
10471;SDS011;5283;48.876;8.962;2023-06-26T02:22:55;9.70;;;8.23;;
10471;SDS011;5283;48.876;8.962;2023-06-26T02:25:22;9.53;;;8.20;;
10471;SDS011;5283;48.876;8.962;2023-06-26T02:27:49;9.43;;;7.87;;
10471;SDS011;5283;48.876;8.962;2023-06-26T02:30:15;8.90;;;8.00;;
10471;SDS011;5283;48.876;8.962;2023-06-26T02:32:42;9.23;;;8.33;;
10471;SDS011;5283;48.876;8.962;2023-06-26T02:35:09;8.73;;;7.87;;
10471;SDS011;5283;48.876;8.962;2023-06-26T02:37:35;9.40;;;8.50;;
10471;SDS011;5283;48.876;8.962;2023-06-26T02:40:03;8.60;;;7.70;;
10471;SDS011;5283;48.876;8.962;2023-06-26T02:42:31;9.57;;;8.00;;
10471;SDS011;5283;48.876;8.962;2023-06-26T02:44:58;8.93;;;7.73;;
10471;SDS011;5283;48.876;8.962;2023-06-26T02:47:24;9.20;;;8.30;;
10471;SDS011;5283;48.876;8.962;2023-06-26T02:49:51;8.70;;;7.90;;
10471;SDS011;5283;48.876;8.962;2023-06-26T02:52:18;9.03;;;8.13;;
10471;SDS011;5283;48.876;8.962;2023-06-26T02:54:45;8.60;;;7.80;;
10471;SDS011;5283;48.876;8.962;2023-06-26T02:57:12;8.73;;;7.83;;
10471;SDS011;5283;48.876;8.962;2023-06-26T02:59:40;8.80;;;7.93;;
10471;SDS011;5283;48.876;8.962;2023-06-26T03:02:07;9.33;;;7.67;;
10471;SDS011;5283;48.876;8.962;2023-06-26T03:04:34;10.00;;;8.20;;
10471;SDS011;5283;48.876;8.962;2023-06-26T03:07:03;9.20;;;8.40;;
10471;SDS011;5283;48.876;8.962;2023-06-26T03:09:30;9.17;;;7.90;;
10471;SDS011;5283;48.876;8.962;2023-06-26T03:11:57;9.07;;;8.17;;
10471;SDS011;5283;48.876;8.962;2023-06-26T03:14:24;9.17;;;8.20;;
10471;SDS011;5283;48.876;8.962;2023-06-26T03:16:51;9.07;;;8.17;;
10471;SDS011;5283;48.876;8.962;2023-06-26T03:19:19;8.87;;;8.07;;
10471;SDS011;5283;48.876;8.962;2023-06-26T03:21:45;9.60;;;7.90;;
10471;SDS011;5283;48.876;8.962;2023-06-26T03:24:12;8.20;;;7.40;;
10471;SDS011;5283;48.876;8.962;2023-06-26T03:26:39;8.60;;;7.80;;
10471;SDS011;5283;48.876;8.962;2023-06-26T03:29:05;8.50;;;7.70;;
10471;SDS011;5283;48.876;8.962;2023-06-26T03:31:32;8.87;;;7.80;;
10471;SDS011;5283;48.876;8.962;2023-06-26T03:33:59;8.10;;;7.23;;
10471;SDS011;5283;48.876;8.962;2023-06-26T03:36:25;8.73;;;7.73;;
10471;SDS011;5283;48.876;8.962;2023-06-26T03:38:52;8.60;;;7.80;;
10471;SDS011;5283;48.876;8.962;2023-06-26T03:41:23;8.47;;;7.67;;
10471;SDS011;5283;48.876;8.962;2023-06-26T03:43:50;8.37;;;7.47;;
10471;SDS011;5283;48.876;8.962;2023-06-26T03:46:17;8.80;;;8.00;;
10471;SDS011;5283;48.876;8.962;2023-06-26T03:48:43;8.40;;;7.43;;
10471;SDS011;5283;48.876;8.962;2023-06-26T03:51:10;8.60;;;7.80;;
10471;SDS011;5283;48.876;8.962;2023-06-26T03:53:37;9.90;;;7.97;;
10471;SDS011;5283;48.876;8.962;2023-06-26T03:56:03;9.07;;;7.77;;
10471;SDS011;5283;48.876;8.962;2023-06-26T03:58:30;8.77;;;7.97;;
10471;SDS011;5283;48.876;8.962;2023-06-26T04:00:57;7.93;;;7.17;;
10471;SDS011;5283;48.876;8.962;2023-06-26T04:03:24;8.70;;;7.37;;
10471;SDS011;5283;48.876;8.962;2023-06-26T04:05:50;8.20;;;7.40;;
10471;SDS011;5283;48.876;8.962;2023-06-26T04:08:17;7.67;;;6.83;;
10471;SDS011;5283;48.876;8.962;2023-06-26T04:10:45;7.50;;;6.77;;
10471;SDS011;5283;48.876;8.962;2023-06-26T04:13:14;7.20;;;6.50;;
10471;SDS011;5283;48.876;8.962;2023-06-26T04:15:41;7.23;;;6.63;;
10471;SDS011;5283;48.876;8.962;2023-06-26T04:18:07;7.33;;;6.63;;
10471;SDS011;5283;48.876;8.962;2023-06-26T04:20:38;7.80;;;7.10;;
10471;SDS011;5283;48.876;8.962;2023-06-26T04:23:05;7.03;;;6.33;;
10471;SDS011;5283;48.876;8.962;2023-06-26T04:25:32;7.00;;;6.37;;
10471;SDS011;5283;48.876;8.962;2023-06-26T04:27:59;6.93;;;6.23;;
10471;SDS011;5283;48.876;8.962;2023-06-26T04:30:25;7.50;;;6.77;;
10471;SDS011;5283;48.876;8.962;2023-06-26T04:32:52;6.87;;;6.27;;
10471;SDS011;5283;48.876;8.962;2023-06-26T04:35:19;7.90;;;6.47;;
10471;SDS011;5283;48.876;8.962;2023-06-26T04:37:47;7.90;;;5.93;;
10471;SDS011;5283;48.876;8.962;2023-06-26T04:40:13;7.07;;;6.30;;
10471;SDS011;5283;48.876;8.962;2023-06-26T04:42:40;7.73;;;6.20;;
10471;SDS011;5283;48.876;8.962;2023-06-26T04:45:07;6.80;;;6.20;;
10471;SDS011;5283;48.876;8.962;2023-06-26T04:47:34;6.50;;;5.90;;
10471;SDS011;5283;48.876;8.962;2023-06-26T04:50:00;6.83;;;6.13;;
10471;SDS011;5283;48.876;8.962;2023-06-26T04:52:27;6.20;;;5.70;;
10471;SDS011;5283;48.876;8.962;2023-06-26T04:54:54;7.43;;;6.23;;
10471;SDS011;5283;48.876;8.962;2023-06-26T04:57:20;6.87;;;6.27;;
10471;SDS011;5283;48.876;8.962;2023-06-26T04:59:47;7.03;;;5.70;;
10471;SDS011;5283;48.876;8.962;2023-06-26T05:02:14;7.63;;;6.57;;
10471;SDS011;5283;48.876;8.962;2023-06-26T05:04:41;6.90;;;6.20;;
10471;SDS011;5283;48.876;8.962;2023-06-26T05:07:08;7.33;;;6.30;;
10471;SDS011;5283;48.876;8.962;2023-06-26T05:09:35;6.50;;;5.90;;
10471;SDS011;5283;48.876;8.962;2023-06-26T05:12:02;7.07;;;6.23;;
10471;SDS011;5283;48.876;8.962;2023-06-26T05:14:29;9.37;;;8.27;;
10471;SDS011;5283;48.876;8.962;2023-06-26T05:16:55;11.03;;;9.77;;
10471;SDS011;5283;48.876;8.962;2023-06-26T05:19:22;8.20;;;7.40;;
10471;SDS011;5283;48.876;8.962;2023-06-26T05:21:49;9.23;;;8.27;;
10471;SDS011;5283;48.876;8.962;2023-06-26T05:24:17;7.70;;;7.00;;
10471;SDS011;5283;48.876;8.962;2023-06-26T05:26:45;7.30;;;6.53;;
10471;SDS011;5283;48.876;8.962;2023-06-26T05:29:12;7.80;;;6.83;;
10471;SDS011;5283;48.876;8.962;2023-06-26T05:31:40;6.50;;;6.00;;
10471;SDS011;5283;48.876;8.962;2023-06-26T05:34:07;7.27;;;6.40;;
10471;SDS011;5283;48.876;8.962;2023-06-26T05:36:36;7.20;;;6.20;;
10471;SDS011;5283;48.876;8.962;2023-06-26T05:39:04;7.07;;;6.37;;
10471;SDS011;5283;48.876;8.962;2023-06-26T05:41:32;7.30;;;6.63;;
10471;SDS011;5283;48.876;8.962;2023-06-26T05:43:58;7.23;;;6.53;;
10471;SDS011;5283;48.876;8.962;2023-06-26T05:46:25;7.93;;;6.53;;
10471;SDS011;5283;48.876;8.962;2023-06-26T05:48:52;6.68;;;6.13;;
10471;SDS011;5283;48.876;8.962;2023-06-26T05:51:19;7.25;;;6.55;;
10471;SDS011;5283;48.876;8.962;2023-06-26T05:53:46;7.03;;;6.35;;
10471;SDS011;5283;48.876;8.962;2023-06-26T05:56:12;7.35;;;6.65;;
10471;SDS011;5283;48.876;8.962;2023-06-26T05:58:39;7.35;;;6.75;;
10471;SDS011;5283;48.876;8.962;2023-06-26T06:01:09;7.45;;;6.72;;
10471;SDS011;5283;48.876;8.962;2023-06-26T06:03:35;6.82;;;6.20;;
10471;SDS011;5283;48.876;8.962;2023-06-26T06:06:02;7.22;;;6.60;;
10471;SDS011;5283;48.876;8.962;2023-06-26T06:08:29;7.07;;;6.47;;
10471;SDS011;5283;48.876;8.962;2023-06-26T06:10:56;7.68;;;6.97;;
10471;SDS011;5283;48.876;8.962;2023-06-26T06:13:23;7.75;;;6.63;;
10471;SDS011;5283;48.876;8.962;2023-06-26T06:15:49;7.50;;;6.90;;
10471;SDS011;5283;48.876;8.962;2023-06-26T06:18:16;6.72;;;6.13;;
10471;SDS011;5283;48.876;8.962;2023-06-26T06:20:43;7.07;;;6.38;;
10471;SDS011;5283;48.876;8.962;2023-06-26T06:23:10;6.97;;;6.32;;
10471;SDS011;5283;48.876;8.962;2023-06-26T06:25:36;7.05;;;6.45;;
10471;SDS011;5283;48.876;8.962;2023-06-26T06:28:04;7.10;;;6.40;;
10471;SDS011;5283;48.876;8.962;2023-06-26T06:30:31;7.68;;;6.88;;
10471;SDS011;5283;48.876;8.962;2023-06-26T06:33:08;7.15;;;6.53;;
10471;SDS011;5283;48.876;8.962;2023-06-26T06:35:35;7.10;;;6.40;;
10471;SDS011;5283;48.876;8.962;2023-06-26T06:38:01;6.60;;;6.07;;
10471;SDS011;5283;48.876;8.962;2023-06-26T06:40:28;7.55;;;6.60;;
10471;SDS011;5283;48.876;8.962;2023-06-26T06:42:54;7.07;;;6.38;;
10471;SDS011;5283;48.876;8.962;2023-06-26T06:45:21;6.95;;;6.35;;
10471;SDS011;5283;48.876;8.962;2023-06-26T06:47:48;7.22;;;6.53;;
10471;SDS011;5283;48.876;8.962;2023-06-26T06:50:15;9.88;;;6.32;;
10471;SDS011;5283;48.876;8.962;2023-06-26T06:52:42;7.25;;;6.55;;
10471;SDS011;5283;48.876;8.962;2023-06-26T06:55:09;7.90;;;6.43;;
10471;SDS011;5283;48.876;8.962;2023-06-26T06:57:36;7.47;;;6.68;;
10471;SDS011;5283;48.876;8.962;2023-06-26T07:00:04;6.82;;;6.25;;
10471;SDS011;5283;48.876;8.962;2023-06-26T07:02:36;7.28;;;6.57;;
10471;SDS011;5283;48.876;8.962;2023-06-26T07:05:04;7.07;;;6.38;;
10471;SDS011;5283;48.876;8.962;2023-06-26T07:07:32;6.93;;;6.32;;
10471;SDS011;5283;48.876;8.962;2023-06-26T07:10:01;6.55;;;5.88;;
10471;SDS011;5283;48.876;8.962;2023-06-26T07:12:32;6.97;;;6.38;;
10471;SDS011;5283;48.876;8.962;2023-06-26T07:15:00;7.03;;;6.43;;
10471;SDS011;5283;48.876;8.962;2023-06-26T07:17:28;6.88;;;6.28;;
10471;SDS011;5283;48.876;8.962;2023-06-26T07:19:55;6.75;;;6.13;;
10471;SDS011;5283;48.876;8.962;2023-06-26T07:22:22;7.45;;;6.70;;
10471;SDS011;5283;48.876;8.962;2023-06-26T07:24:49;7.68;;;6.97;;
10471;SDS011;5283;48.876;8.962;2023-06-26T07:27:16;8.10;;;6.40;;
10471;SDS011;5283;48.876;8.962;2023-06-26T07:29:44;6.82;;;6.20;;
10471;SDS011;5283;48.876;8.962;2023-06-26T07:32:11;7.35;;;6.40;;
10471;SDS011;5283;48.876;8.962;2023-06-26T07:34:39;6.68;;;6.07;;
10471;SDS011;5283;48.876;8.962;2023-06-26T07:37:06;7.15;;;6.32;;
10471;SDS011;5283;48.876;8.962;2023-06-26T07:39:33;6.97;;;6.38;;
10471;SDS011;5283;48.876;8.962;2023-06-26T07:42:01;6.78;;;6.18;;
10471;SDS011;5283;48.876;8.962;2023-06-26T07:44:27;7.07;;;6.47;;
10471;SDS011;5283;48.876;8.962;2023-06-26T07:46:54;6.10;;;5.30;;
10471;SDS011;5283;48.876;8.962;2023-06-26T07:49:21;5.40;;;4.90;;
10471;SDS011;5283;48.876;8.962;2023-06-26T07:51:48;5.22;;;4.72;;
10471;SDS011;5283;48.876;8.962;2023-06-26T07:54:14;6.32;;;4.47;;
10471;SDS011;5283;48.876;8.962;2023-06-26T07:56:57;4.97;;;4.55;;
10471;SDS011;5283;48.876;8.962;2023-06-26T07:59:25;5.88;;;4.82;;
10471;SDS011;5283;48.876;8.962;2023-06-26T08:01:54;4.97;;;4.57;;
10471;SDS011;5283;48.876;8.962;2023-06-26T08:04:23;6.50;;;4.60;;
10471;SDS011;5283;48.876;8.962;2023-06-26T08:06:52;5.50;;;5.00;;
10471;SDS011;5283;48.876;8.962;2023-06-26T08:09:21;6.53;;;4.93;;
10471;SDS011;5283;48.876;8.962;2023-06-26T08:11:49;5.20;;;4.80;;
10471;SDS011;5283;48.876;8.962;2023-06-26T08:14:16;5.05;;;4.65;;
10471;SDS011;5283;48.876;8.962;2023-06-26T08:16:43;5.05;;;4.57;;
10471;SDS011;5283;48.876;8.962;2023-06-26T08:19:11;4.90;;;4.50;;
10471;SDS011;5283;48.876;8.962;2023-06-26T08:21:42;4.57;;;4.18;;
10471;SDS011;5283;48.876;8.962;2023-06-26T08:24:10;4.50;;;4.15;;
10471;SDS011;5283;48.876;8.962;2023-06-26T08:26:37;4.78;;;4.35;;
10471;SDS011;5283;48.876;8.962;2023-06-26T08:29:03;9.90;;;4.53;;
10471;SDS011;5283;48.876;8.962;2023-06-26T08:31:35;4.65;;;4.15;;
10471;SDS011;5283;48.876;8.962;2023-06-26T08:34:02;4.57;;;4.18;;
10471;SDS011;5283;48.876;8.962;2023-06-26T08:36:29;4.70;;;4.30;;
10471;SDS011;5283;48.876;8.962;2023-06-26T08:38:57;5.03;;;4.57;;
10471;SDS011;5283;48.876;8.962;2023-06-26T08:41:24;4.70;;;4.30;;
10471;SDS011;5283;48.876;8.962;2023-06-26T08:43:51;5.38;;;4.88;;
10471;SDS011;5283;48.876;8.962;2023-06-26T08:46:19;4.85;;;4.40;;
10471;SDS011;5283;48.876;8.962;2023-06-26T08:48:51;4.30;;;4.00;;
10471;SDS011;5283;48.876;8.962;2023-06-26T08:51:24;4.78;;;4.30;;
10471;SDS011;5283;48.876;8.962;2023-06-26T08:53:58;6.30;;;4.43;;
10471;SDS011;5283;48.876;8.962;2023-06-26T08:56:32;5.10;;;4.70;;
10471;SDS011;5283;48.876;8.962;2023-06-26T08:59:03;4.63;;;4.22;;
10471;SDS011;5283;48.876;8.962;2023-06-26T09:01:30;5.07;;;4.45;;
10471;SDS011;5283;48.876;8.962;2023-06-26T09:03:58;4.80;;;4.38;;
10471;SDS011;5283;48.876;8.962;2023-06-26T09:06:24;4.80;;;4.40;;
10471;SDS011;5283;48.876;8.962;2023-06-26T09:08:51;5.60;;;5.10;;
10471;SDS011;5283;48.876;8.962;2023-06-26T09:11:18;5.20;;;4.47;;
10471;SDS011;5283;48.876;8.962;2023-06-26T09:13:45;5.20;;;4.70;;
10471;SDS011;5283;48.876;8.962;2023-06-26T09:16:13;5.00;;;4.60;;
10471;SDS011;5283;48.876;8.962;2023-06-26T09:18:40;5.18;;;4.72;;
10471;SDS011;5283;48.876;8.962;2023-06-26T09:21:09;5.47;;;4.97;;
10471;SDS011;5283;48.876;8.962;2023-06-26T09:23:36;5.18;;;4.63;;
10471;SDS011;5283;48.876;8.962;2023-06-26T09:26:03;5.38;;;4.78;;
10471;SDS011;5283;48.876;8.962;2023-06-26T09:28:34;6.85;;;5.13;;
10471;SDS011;5283;48.876;8.962;2023-06-26T09:31:05;6.10;;;5.00;;
10471;SDS011;5283;48.876;8.962;2023-06-26T09:33:34;6.25;;;4.97;;
10471;SDS011;5283;48.876;8.962;2023-06-26T09:36:06;6.83;;;5.30;;
10471;SDS011;5283;48.876;8.962;2023-06-26T09:38:34;7.47;;;5.70;;
10471;SDS011;5283;48.876;8.962;2023-06-26T09:41:02;7.03;;;4.93;;
10471;SDS011;5283;48.876;8.962;2023-06-26T09:43:29;7.37;;;5.50;;
10471;SDS011;5283;48.876;8.962;2023-06-26T09:45:57;5.70;;;5.30;;
10471;SDS011;5283;48.876;8.962;2023-06-26T09:48:24;6.67;;;5.50;;
10471;SDS011;5283;48.876;8.962;2023-06-26T09:50:52;6.83;;;5.93;;
10471;SDS011;5283;48.876;8.962;2023-06-26T09:53:31;6.17;;;5.47;;
10471;SDS011;5283;48.876;8.962;2023-06-26T09:56:06;6.47;;;5.70;;
10471;SDS011;5283;48.876;8.962;2023-06-26T09:58:33;5.88;;;5.25;;
10471;SDS011;5283;48.876;8.962;2023-06-26T10:01:01;8.77;;;5.70;;
10471;SDS011;5283;48.876;8.962;2023-06-26T10:03:28;7.27;;;5.60;;
10471;SDS011;5283;48.876;8.962;2023-06-26T10:05:55;6.37;;;5.77;;
10471;SDS011;5283;48.876;8.962;2023-06-26T10:08:22;6.30;;;5.80;;
10471;SDS011;5283;48.876;8.962;2023-06-26T10:10:49;5.87;;;5.37;;
10471;SDS011;5283;48.876;8.962;2023-06-26T10:13:18;6.37;;;5.50;;
10471;SDS011;5283;48.876;8.962;2023-06-26T10:16:08;5.90;;;5.23;;
10471;SDS011;5283;48.876;8.962;2023-06-26T10:18:36;6.00;;;5.40;;
10471;SDS011;5283;48.876;8.962;2023-06-26T10:21:06;6.30;;;5.73;;
10471;SDS011;5283;48.876;8.962;2023-06-26T10:23:34;6.90;;;5.60;;
10471;SDS011;5283;48.876;8.962;2023-06-26T10:26:05;6.27;;;5.77;;
10471;SDS011;5283;48.876;8.962;2023-06-26T10:28:34;5.93;;;5.43;;
10471;SDS011;5283;48.876;8.962;2023-06-26T10:31:02;7.03;;;5.70;;
10471;SDS011;5283;48.876;8.962;2023-06-26T10:33:31;7.47;;;5.70;;
10471;SDS011;5283;48.876;8.962;2023-06-26T10:36:15;6.40;;;5.80;;
10471;SDS011;5283;48.876;8.962;2023-06-26T10:39:04;6.33;;;5.83;;
10471;SDS011;5283;48.876;8.962;2023-06-26T10:41:36;6.10;;;5.27;;
10471;SDS011;5283;48.876;8.962;2023-06-26T10:44:12;5.80;;;5.30;;
10471;SDS011;5283;48.876;8.962;2023-06-26T10:49:18;9.00;;;6.13;;
10471;SDS011;5283;48.876;8.962;2023-06-26T10:51:46;7.07;;;5.78;;
10471;SDS011;5283;48.876;8.962;2023-06-26T10:54:17;7.40;;;5.65;;
10471;SDS011;5283;48.876;8.962;2023-06-26T10:56:48;8.93;;;5.87;;
10471;SDS011;5283;48.876;8.962;2023-06-26T10:59:20;5.97;;;5.40;;
10471;SDS011;5283;48.876;8.962;2023-06-26T11:01:55;6.17;;;5.60;;
10471;SDS011;5283;48.876;8.962;2023-06-26T11:07:16;6.10;;;5.27;;
10471;SDS011;5283;48.876;8.962;2023-06-26T11:10:20;6.07;;;5.57;;
10471;SDS011;5283;48.876;8.962;2023-06-26T11:12:42;5.90;;;5.30;;
10471;SDS011;5283;48.876;8.962;2023-06-26T11:15:14;6.73;;;5.17;;
10471;SDS011;5283;48.876;8.962;2023-06-26T11:17:42;6.13;;;5.53;;
10471;SDS011;5283;48.876;8.962;2023-06-26T11:20:10;7.63;;;5.80;;
10471;SDS011;5283;48.876;8.962;2023-06-26T11:22:39;6.03;;;5.43;;
10471;SDS011;5283;48.876;8.962;2023-06-26T11:25:08;13.30;;;9.83;;
10471;SDS011;5283;48.876;8.962;2023-06-26T11:30:06;7.80;;;7.00;;
10471;SDS011;5283;48.876;8.962;2023-06-26T11:32:38;9.13;;;5.83;;
10471;SDS011;5283;48.876;8.962;2023-06-26T11:35:05;9.77;;;7.73;;
10471;SDS011;5283;48.876;8.962;2023-06-26T11:37:32;6.43;;;5.83;;
10471;SDS011;5283;48.876;8.962;2023-06-26T11:40:00;8.70;;;5.90;;
10471;SDS011;5283;48.876;8.962;2023-06-26T11:42:42;6.47;;;5.50;;
10471;SDS011;5283;48.876;8.962;2023-06-26T11:45:10;6.60;;;5.90;;
10471;SDS011;5283;48.876;8.962;2023-06-26T11:47:38;6.60;;;6.00;;
10471;SDS011;5283;48.876;8.962;2023-06-26T11:50:05;9.43;;;5.40;;
10471;SDS011;5283;48.876;8.962;2023-06-26T11:52:35;8.50;;;5.60;;
10471;SDS011;5283;48.876;8.962;2023-06-26T11:55:01;7.67;;;5.73;;
10471;SDS011;5283;48.876;8.962;2023-06-26T11:57:28;6.83;;;5.57;;
10471;SDS011;5283;48.876;8.962;2023-06-26T11:59:56;8.87;;;5.73;;
10471;SDS011;5283;48.876;8.962;2023-06-26T12:02:23;5.93;;;5.33;;
10471;SDS011;5283;48.876;8.962;2023-06-26T12:04:50;8.33;;;5.97;;
10471;SDS011;5283;48.876;8.962;2023-06-26T12:07:17;8.13;;;5.83;;
10471;SDS011;5283;48.876;8.962;2023-06-26T12:09:45;7.20;;;5.50;;
10471;SDS011;5283;48.876;8.962;2023-06-26T12:12:14;6.10;;;5.50;;
10471;SDS011;5283;48.876;8.962;2023-06-26T12:14:43;7.53;;;5.57;;
10471;SDS011;5283;48.876;8.962;2023-06-26T12:17:11;6.33;;;5.53;;
10471;SDS011;5283;48.876;8.962;2023-06-26T12:19:42;5.90;;;5.40;;
10471;SDS011;5283;48.876;8.962;2023-06-26T12:22:11;5.83;;;5.33;;
10471;SDS011;5283;48.876;8.962;2023-06-26T12:24:38;7.27;;;5.50;;
10471;SDS011;5283;48.876;8.962;2023-06-26T12:27:09;6.17;;;5.53;;
10471;SDS011;5283;48.876;8.962;2023-06-26T12:29:38;6.00;;;5.47;;
10471;SDS011;5283;48.876;8.962;2023-06-26T12:32:09;6.60;;;5.80;;
10471;SDS011;5283;48.876;8.962;2023-06-26T12:34:37;6.77;;;5.20;;
10471;SDS011;5283;48.876;8.962;2023-06-26T12:37:06;7.13;;;5.20;;
10471;SDS011;5283;48.876;8.962;2023-06-26T12:39:53;5.50;;;5.00;;
10471;SDS011;5283;48.876;8.962;2023-06-26T12:42:24;6.17;;;4.70;;
10471;SDS011;5283;48.876;8.962;2023-06-26T12:44:52;8.43;;;5.10;;
10471;SDS011;5283;48.876;8.962;2023-06-26T12:47:26;5.50;;;4.90;;
10471;SDS011;5283;48.876;8.962;2023-06-26T12:49:54;5.17;;;4.70;;
10471;SDS011;5283;48.876;8.962;2023-06-26T12:52:21;7.13;;;4.77;;
10471;SDS011;5283;48.876;8.962;2023-06-26T12:54:51;8.30;;;5.03;;
10471;SDS011;5283;48.876;8.962;2023-06-26T12:57:19;5.43;;;4.93;;
10471;SDS011;5283;48.876;8.962;2023-06-26T12:59:46;7.50;;;4.97;;
10471;SDS011;5283;48.876;8.962;2023-06-26T13:02:12;7.43;;;4.60;;
10471;SDS011;5283;48.876;8.962;2023-06-26T13:04:39;6.53;;;4.90;;
10471;SDS011;5283;48.876;8.962;2023-06-26T13:07:07;5.53;;;4.60;;
10471;SDS011;5283;48.876;8.962;2023-06-26T13:09:34;5.33;;;4.50;;
10471;SDS011;5283;48.876;8.962;2023-06-26T13:12:03;5.63;;;4.63;;
10471;SDS011;5283;48.876;8.962;2023-06-26T13:14:31;4.80;;;4.40;;
10471;SDS011;5283;48.876;8.962;2023-06-26T13:16:58;5.07;;;4.50;;
10471;SDS011;5283;48.876;8.962;2023-06-26T13:19:26;5.80;;;4.50;;
10471;SDS011;5283;48.876;8.962;2023-06-26T13:21:53;5.13;;;4.63;;
10471;SDS011;5283;48.876;8.962;2023-06-26T13:24:20;4.53;;;4.13;;
10471;SDS011;5283;48.876;8.962;2023-06-26T13:26:47;8.33;;;4.30;;
10471;SDS011;5283;48.876;8.962;2023-06-26T13:29:14;5.17;;;4.00;;
10471;SDS011;5283;48.876;8.962;2023-06-26T13:31:40;6.07;;;4.30;;
10471;SDS011;5283;48.876;8.962;2023-06-26T13:34:07;4.97;;;4.13;;
10471;SDS011;5283;48.876;8.962;2023-06-26T13:36:34;5.63;;;3.70;;
10471;SDS011;5283;48.876;8.962;2023-06-26T13:39:01;4.70;;;3.73;;
10471;SDS011;5283;48.876;8.962;2023-06-26T13:41:28;4.63;;;3.57;;
10471;SDS011;5283;48.876;8.962;2023-06-26T13:43:55;5.70;;;3.97;;
10471;SDS011;5283;48.876;8.962;2023-06-26T13:46:22;8.60;;;3.80;;
10471;SDS011;5283;48.876;8.962;2023-06-26T13:48:48;4.30;;;3.73;;
10471;SDS011;5283;48.876;8.962;2023-06-26T13:51:15;3.67;;;3.40;;
10471;SDS011;5283;48.876;8.962;2023-06-26T13:53:42;55.50;;;6.07;;
10471;SDS011;5283;48.876;8.962;2023-06-26T13:56:08;120.37;;;10.33;;
10471;SDS011;5283;48.876;8.962;2023-06-26T13:58:35;50.17;;;5.43;;
10471;SDS011;5283;48.876;8.962;2023-06-26T14:01:02;23.07;;;4.50;;
10471;SDS011;5283;48.876;8.962;2023-06-26T14:03:30;5.00;;;3.20;;
10471;SDS011;5283;48.876;8.962;2023-06-26T14:05:57;23.70;;;4.57;;
10471;SDS011;5283;48.876;8.962;2023-06-26T14:08:24;6.60;;;3.33;;
10471;SDS011;5283;48.876;8.962;2023-06-26T14:10:51;3.50;;;3.20;;
10471;SDS011;5283;48.876;8.962;2023-06-26T14:13:18;7.13;;;3.43;;
10471;SDS011;5283;48.876;8.962;2023-06-26T14:15:45;3.47;;;3.17;;
10471;SDS011;5283;48.876;8.962;2023-06-26T14:18:12;4.17;;;3.17;;
10471;SDS011;5283;48.876;8.962;2023-06-26T14:20:39;6.73;;;3.30;;
10471;SDS011;5283;48.876;8.962;2023-06-26T14:23:06;5.07;;;3.40;;
10471;SDS011;5283;48.876;8.962;2023-06-26T14:25:33;7.23;;;3.50;;
10471;SDS011;5283;48.876;8.962;2023-06-26T14:28:00;3.97;;;3.47;;
10471;SDS011;5283;48.876;8.962;2023-06-26T14:30:27;3.57;;;3.27;;
10471;SDS011;5283;48.876;8.962;2023-06-26T14:32:53;5.83;;;3.50;;
10471;SDS011;5283;48.876;8.962;2023-06-26T14:35:20;4.57;;;3.53;;
10471;SDS011;5283;48.876;8.962;2023-06-26T14:37:47;3.90;;;3.50;;
10471;SDS011;5283;48.876;8.962;2023-06-26T14:40:14;6.80;;;3.90;;
10471;SDS011;5283;48.876;8.962;2023-06-26T14:42:41;8.77;;;4.13;;
10471;SDS011;5283;48.876;8.962;2023-06-26T14:45:09;5.27;;;3.70;;
10471;SDS011;5283;48.876;8.962;2023-06-26T14:47:36;6.20;;;3.50;;
10471;SDS011;5283;48.876;8.962;2023-06-26T14:50:04;5.50;;;3.90;;
10471;SDS011;5283;48.876;8.962;2023-06-26T14:52:31;4.77;;;3.77;;
10471;SDS011;5283;48.876;8.962;2023-06-26T14:54:57;6.50;;;4.40;;
10471;SDS011;5283;48.876;8.962;2023-06-26T14:57:25;6.50;;;4.63;;
10471;SDS011;5283;48.876;8.962;2023-06-26T14:59:52;7.10;;;4.93;;
10471;SDS011;5283;48.876;8.962;2023-06-26T15:02:19;5.00;;;4.57;;
10471;SDS011;5283;48.876;8.962;2023-06-26T15:04:45;6.73;;;4.77;;
10471;SDS011;5283;48.876;8.962;2023-06-26T15:07:12;7.70;;;5.20;;
10471;SDS011;5283;48.876;8.962;2023-06-26T15:09:39;5.60;;;5.03;;
10471;SDS011;5283;48.876;8.962;2023-06-26T15:12:06;5.77;;;5.07;;
10471;SDS011;5283;48.876;8.962;2023-06-26T15:14:33;8.07;;;5.50;;
10471;SDS011;5283;48.876;8.962;2023-06-26T15:16:59;7.70;;;5.50;;